sensor_id;sensor_type;location;lat;lon;timestamp;P1;durP1;ratioP1;P2;durP2;ratioP2
11006;SDS011;8186;57.652;11.968;2022-12-20T00:00:46;0.63;;;0.50;;
11006;SDS011;8186;57.652;11.968;2022-12-20T00:03:15;0.60;;;0.60;;
11006;SDS011;8186;57.652;11.968;2022-12-20T00:05:43;0.60;;;0.60;;
11006;SDS011;8186;57.652;11.968;2022-12-20T00:08:10;1.07;;;0.50;;
11006;SDS011;8186;57.652;11.968;2022-12-20T00:10:38;0.70;;;0.50;;
11006;SDS011;8186;57.652;11.968;2022-12-20T00:13:07;1.07;;;0.50;;
11006;SDS011;8186;57.652;11.968;2022-12-20T00:15:35;0.50;;;0.47;;
11006;SDS011;8186;57.652;11.968;2022-12-20T00:18:02;1.73;;;0.50;;
11006;SDS011;8186;57.652;11.968;2022-12-20T00:20:31;0.50;;;0.50;;
11006;SDS011;8186;57.652;11.968;2022-12-20T00:22:59;0.40;;;0.40;;
11006;SDS011;8186;57.652;11.968;2022-12-20T00:25:26;0.73;;;0.40;;
11006;SDS011;8186;57.652;11.968;2022-12-20T00:27:53;0.60;;;0.50;;
11006;SDS011;8186;57.652;11.968;2022-12-20T00:30:21;0.90;;;0.50;;
11006;SDS011;8186;57.652;11.968;2022-12-20T00:32:48;1.80;;;0.50;;
11006;SDS011;8186;57.652;11.968;2022-12-20T00:35:15;0.40;;;0.40;;
11006;SDS011;8186;57.652;11.968;2022-12-20T00:37:44;1.37;;;0.40;;
11006;SDS011;8186;57.652;11.968;2022-12-20T00:40:11;1.33;;;0.63;;
11006;SDS011;8186;57.652;11.968;2022-12-20T00:42:39;0.87;;;0.73;;
11006;SDS011;8186;57.652;11.968;2022-12-20T00:45:06;1.50;;;1.03;;
11006;SDS011;8186;57.652;11.968;2022-12-20T00:47:34;0.90;;;0.90;;
11006;SDS011;8186;57.652;11.968;2022-12-20T00:50:01;1.20;;;1.10;;
11006;SDS011;8186;57.652;11.968;2022-12-20T00:52:28;1.87;;;1.10;;
11006;SDS011;8186;57.652;11.968;2022-12-20T00:54:56;2.70;;;1.43;;
11006;SDS011;8186;57.652;11.968;2022-12-20T00:57:23;2.27;;;1.90;;
11006;SDS011;8186;57.652;11.968;2022-12-20T00:59:51;1.97;;;1.80;;
11006;SDS011;8186;57.652;11.968;2022-12-20T01:02:18;5.10;;;2.70;;
11006;SDS011;8186;57.652;11.968;2022-12-20T01:04:45;4.60;;;3.10;;
11006;SDS011;8186;57.652;11.968;2022-12-20T01:07:14;4.37;;;3.10;;
11006;SDS011;8186;57.652;11.968;2022-12-20T01:09:41;5.03;;;3.37;;
11006;SDS011;8186;57.652;11.968;2022-12-20T01:12:09;5.47;;;3.50;;
11006;SDS011;8186;57.652;11.968;2022-12-20T01:14:36;4.00;;;3.27;;
11006;SDS011;8186;57.652;11.968;2022-12-20T01:17:04;7.47;;;3.93;;
11006;SDS011;8186;57.652;11.968;2022-12-20T01:19:31;7.13;;;4.03;;
11006;SDS011;8186;57.652;11.968;2022-12-20T01:21:58;6.33;;;4.13;;
11006;SDS011;8186;57.652;11.968;2022-12-20T01:24:26;8.33;;;4.50;;
11006;SDS011;8186;57.652;11.968;2022-12-20T01:26:53;6.73;;;3.80;;
11006;SDS011;8186;57.652;11.968;2022-12-20T01:29:21;6.43;;;4.03;;
11006;SDS011;8186;57.652;11.968;2022-12-20T01:31:48;7.70;;;4.23;;
11006;SDS011;8186;57.652;11.968;2022-12-20T01:34:17;6.63;;;3.93;;
11006;SDS011;8186;57.652;11.968;2022-12-20T01:36:45;6.63;;;4.37;;
11006;SDS011;8186;57.652;11.968;2022-12-20T01:39:14;6.73;;;3.90;;
11006;SDS011;8186;57.652;11.968;2022-12-20T01:41:42;5.70;;;3.97;;
11006;SDS011;8186;57.652;11.968;2022-12-20T01:47:08;4.97;;;3.60;;
11006;SDS011;8186;57.652;11.968;2022-12-20T01:49:37;3.53;;;2.83;;
11006;SDS011;8186;57.652;11.968;2022-12-20T01:52:07;3.50;;;2.80;;
11006;SDS011;8186;57.652;11.968;2022-12-20T01:54:37;3.83;;;2.53;;
11006;SDS011;8186;57.652;11.968;2022-12-20T01:57:06;2.20;;;2.00;;
11006;SDS011;8186;57.652;11.968;2022-12-20T01:59:36;2.50;;;2.10;;
11006;SDS011;8186;57.652;11.968;2022-12-20T02:02:06;2.33;;;1.97;;
11006;SDS011;8186;57.652;11.968;2022-12-20T02:04:37;2.43;;;2.20;;
11006;SDS011;8186;57.652;11.968;2022-12-20T02:07:04;1.63;;;1.53;;
11006;SDS011;8186;57.652;11.968;2022-12-20T02:09:33;2.70;;;2.20;;
11006;SDS011;8186;57.652;11.968;2022-12-20T02:12:03;3.60;;;2.33;;
11006;SDS011;8186;57.652;11.968;2022-12-20T02:14:37;3.00;;;2.30;;
11006;SDS011;8186;57.652;11.968;2022-12-20T02:17:17;4.33;;;2.27;;
11006;SDS011;8186;57.652;11.968;2022-12-20T02:20:04;3.20;;;2.47;;
11006;SDS011;8186;57.652;11.968;2022-12-20T02:22:44;3.40;;;2.40;;
11006;SDS011;8186;57.652;11.968;2022-12-20T02:25:32;4.13;;;2.83;;
11006;SDS011;8186;57.652;11.968;2022-12-20T02:28:09;5.73;;;3.03;;
11006;SDS011;8186;57.652;11.968;2022-12-20T02:30:48;6.33;;;3.23;;
11006;SDS011;8186;57.652;11.968;2022-12-20T02:33:19;6.90;;;3.60;;
11006;SDS011;8186;57.652;11.968;2022-12-20T02:35:47;6.83;;;4.13;;
11006;SDS011;8186;57.652;11.968;2022-12-20T02:38:25;6.67;;;4.00;;
11006;SDS011;8186;57.652;11.968;2022-12-20T02:40:55;9.57;;;4.50;;
11006;SDS011;8186;57.652;11.968;2022-12-20T02:43:24;9.67;;;5.17;;
11006;SDS011;8186;57.652;11.968;2022-12-20T02:46:12;9.20;;;5.10;;
11006;SDS011;8186;57.652;11.968;2022-12-20T02:48:39;10.00;;;5.23;;
11006;SDS011;8186;57.652;11.968;2022-12-20T02:51:07;11.23;;;6.20;;
11006;SDS011;8186;57.652;11.968;2022-12-20T02:53:34;15.97;;;6.27;;
11006;SDS011;8186;57.652;11.968;2022-12-20T02:56:04;12.50;;;6.50;;
11006;SDS011;8186;57.652;11.968;2022-12-20T02:58:36;9.57;;;5.90;;
11006;SDS011;8186;57.652;11.968;2022-12-20T03:01:06;11.07;;;6.10;;
11006;SDS011;8186;57.652;11.968;2022-12-20T03:03:37;12.53;;;6.40;;
11006;SDS011;8186;57.652;11.968;2022-12-20T03:06:04;11.33;;;6.43;;
11006;SDS011;8186;57.652;11.968;2022-12-20T03:08:32;15.07;;;7.50;;
11006;SDS011;8186;57.652;11.968;2022-12-20T03:10:59;14.07;;;7.70;;
11006;SDS011;8186;57.652;11.968;2022-12-20T03:13:27;11.87;;;7.30;;
11006;SDS011;8186;57.652;11.968;2022-12-20T03:15:54;13.67;;;7.23;;
11006;SDS011;8186;57.652;11.968;2022-12-20T03:18:21;13.93;;;6.67;;
11006;SDS011;8186;57.652;11.968;2022-12-20T03:20:49;11.33;;;6.30;;
11006;SDS011;8186;57.652;11.968;2022-12-20T03:23:16;9.77;;;6.07;;
11006;SDS011;8186;57.652;11.968;2022-12-20T03:25:43;9.63;;;5.90;;
11006;SDS011;8186;57.652;11.968;2022-12-20T03:28:11;12.07;;;6.40;;
11006;SDS011;8186;57.652;11.968;2022-12-20T03:30:38;19.90;;;8.13;;
11006;SDS011;8186;57.652;11.968;2022-12-20T03:33:05;16.20;;;7.73;;
11006;SDS011;8186;57.652;11.968;2022-12-20T03:35:32;17.30;;;7.87;;
11006;SDS011;8186;57.652;11.968;2022-12-20T03:38:01;13.40;;;7.43;;
11006;SDS011;8186;57.652;11.968;2022-12-20T03:40:28;10.20;;;6.23;;
11006;SDS011;8186;57.652;11.968;2022-12-20T03:42:55;8.67;;;5.70;;
11006;SDS011;8186;57.652;11.968;2022-12-20T03:45:22;15.47;;;7.30;;
11006;SDS011;8186;57.652;11.968;2022-12-20T03:47:49;16.07;;;7.53;;
11006;SDS011;8186;57.652;11.968;2022-12-20T03:50:16;13.80;;;7.00;;
11006;SDS011;8186;57.652;11.968;2022-12-20T03:52:44;15.10;;;8.17;;
11006;SDS011;8186;57.652;11.968;2022-12-20T03:55:12;18.87;;;8.63;;
11006;SDS011;8186;57.652;11.968;2022-12-20T03:57:39;17.97;;;9.47;;
11006;SDS011;8186;57.652;11.968;2022-12-20T04:00:07;23.87;;;10.67;;
11006;SDS011;8186;57.652;11.968;2022-12-20T04:02:36;20.37;;;9.57;;
11006;SDS011;8186;57.652;11.968;2022-12-20T04:05:04;15.00;;;9.10;;
11006;SDS011;8186;57.652;11.968;2022-12-20T04:07:32;13.97;;;6.93;;
11006;SDS011;8186;57.652;11.968;2022-12-20T04:10:00;12.40;;;7.37;;
11006;SDS011;8186;57.652;11.968;2022-12-20T04:12:28;11.60;;;6.83;;
11006;SDS011;8186;57.652;11.968;2022-12-20T04:14:55;10.97;;;6.50;;
11006;SDS011;8186;57.652;11.968;2022-12-20T04:17:22;13.97;;;7.07;;
11006;SDS011;8186;57.652;11.968;2022-12-20T04:19:49;13.93;;;7.57;;
11006;SDS011;8186;57.652;11.968;2022-12-20T04:22:16;17.57;;;9.40;;
11006;SDS011;8186;57.652;11.968;2022-12-20T04:24:43;18.37;;;9.27;;
11006;SDS011;8186;57.652;11.968;2022-12-20T04:27:11;19.47;;;9.70;;
11006;SDS011;8186;57.652;11.968;2022-12-20T04:29:39;24.57;;;10.60;;
11006;SDS011;8186;57.652;11.968;2022-12-20T04:32:06;18.93;;;9.40;;
11006;SDS011;8186;57.652;11.968;2022-12-20T04:34:33;27.73;;;10.20;;
11006;SDS011;8186;57.652;11.968;2022-12-20T04:37:00;19.60;;;10.27;;
11006;SDS011;8186;57.652;11.968;2022-12-20T04:39:28;28.57;;;11.10;;
11006;SDS011;8186;57.652;11.968;2022-12-20T04:41:58;33.53;;;11.57;;
11006;SDS011;8186;57.652;11.968;2022-12-20T04:44:25;32.77;;;11.30;;
11006;SDS011;8186;57.652;11.968;2022-12-20T04:46:54;38.00;;;12.97;;
11006;SDS011;8186;57.652;11.968;2022-12-20T04:49:21;41.30;;;11.93;;
11006;SDS011;8186;57.652;11.968;2022-12-20T04:51:48;43.40;;;13.33;;
11006;SDS011;8186;57.652;11.968;2022-12-20T04:54:15;40.13;;;12.37;;
11006;SDS011;8186;57.652;11.968;2022-12-20T04:56:41;67.17;;;13.70;;
11006;SDS011;8186;57.652;11.968;2022-12-20T04:59:08;54.60;;;14.37;;
11006;SDS011;8186;57.652;11.968;2022-12-20T05:01:36;47.87;;;13.30;;
11006;SDS011;8186;57.652;11.968;2022-12-20T05:04:05;47.70;;;12.97;;
11006;SDS011;8186;57.652;11.968;2022-12-20T05:06:32;38.27;;;11.30;;
11006;SDS011;8186;57.652;11.968;2022-12-20T05:08:59;57.13;;;13.67;;
11006;SDS011;8186;57.652;11.968;2022-12-20T05:11:26;46.60;;;12.73;;
11006;SDS011;8186;57.652;11.968;2022-12-20T05:13:53;44.37;;;12.93;;
11006;SDS011;8186;57.652;11.968;2022-12-20T05:16:21;47.13;;;14.17;;
11006;SDS011;8186;57.652;11.968;2022-12-20T05:18:48;66.10;;;14.37;;
11006;SDS011;8186;57.652;11.968;2022-12-20T05:21:17;62.93;;;14.67;;
11006;SDS011;8186;57.652;11.968;2022-12-20T05:24:01;61.73;;;15.70;;
11006;SDS011;8186;57.652;11.968;2022-12-20T05:26:50;40.73;;;10.93;;
11006;SDS011;8186;57.652;11.968;2022-12-20T05:29:17;59.07;;;14.17;;
11006;SDS011;8186;57.652;11.968;2022-12-20T05:31:44;56.97;;;15.37;;
11006;SDS011;8186;57.652;11.968;2022-12-20T05:34:12;69.03;;;16.17;;
11006;SDS011;8186;57.652;11.968;2022-12-20T05:36:40;39.73;;;12.03;;
11006;SDS011;8186;57.652;11.968;2022-12-20T05:39:08;59.43;;;14.77;;
11006;SDS011;8186;57.652;11.968;2022-12-20T05:41:35;54.00;;;13.10;;
11006;SDS011;8186;57.652;11.968;2022-12-20T05:44:03;75.33;;;16.27;;
11006;SDS011;8186;57.652;11.968;2022-12-20T05:46:30;69.67;;;14.73;;
11006;SDS011;8186;57.652;11.968;2022-12-20T05:48:57;70.90;;;17.30;;
11006;SDS011;8186;57.652;11.968;2022-12-20T05:51:24;77.43;;;15.23;;
11006;SDS011;8186;57.652;11.968;2022-12-20T05:53:53;73.93;;;16.57;;
11006;SDS011;8186;57.652;11.968;2022-12-20T05:56:20;69.87;;;15.53;;
11006;SDS011;8186;57.652;11.968;2022-12-20T05:58:47;59.07;;;14.37;;
11006;SDS011;8186;57.652;11.968;2022-12-20T06:01:14;80.67;;;18.00;;
11006;SDS011;8186;57.652;11.968;2022-12-20T06:03:42;83.50;;;16.10;;
11006;SDS011;8186;57.652;11.968;2022-12-20T06:06:10;65.70;;;17.60;;
11006;SDS011;8186;57.652;11.968;2022-12-20T06:08:37;59.23;;;16.50;;
11006;SDS011;8186;57.652;11.968;2022-12-20T06:11:06;63.47;;;15.90;;
11006;SDS011;8186;57.652;11.968;2022-12-20T06:13:33;56.60;;;14.60;;
11006;SDS011;8186;57.652;11.968;2022-12-20T06:16:00;74.90;;;16.43;;
11006;SDS011;8186;57.652;11.968;2022-12-20T06:18:27;68.90;;;15.83;;
11006;SDS011;8186;57.652;11.968;2022-12-20T06:20:54;85.17;;;16.90;;
11006;SDS011;8186;57.652;11.968;2022-12-20T06:23:21;76.73;;;16.87;;
11006;SDS011;8186;57.652;11.968;2022-12-20T06:25:49;60.97;;;14.80;;
11006;SDS011;8186;57.652;11.968;2022-12-20T06:28:17;70.87;;;17.97;;
11006;SDS011;8186;57.652;11.968;2022-12-20T06:30:50;63.77;;;15.27;;
11006;SDS011;8186;57.652;11.968;2022-12-20T06:33:18;67.60;;;16.63;;
11006;SDS011;8186;57.652;11.968;2022-12-20T06:35:45;72.43;;;17.93;;
11006;SDS011;8186;57.652;11.968;2022-12-20T06:38:12;62.87;;;16.63;;
11006;SDS011;8186;57.652;11.968;2022-12-20T06:40:39;80.97;;;15.57;;
11006;SDS011;8186;57.652;11.968;2022-12-20T06:43:06;65.00;;;17.53;;
11006;SDS011;8186;57.652;11.968;2022-12-20T06:45:35;76.93;;;18.50;;
11006;SDS011;8186;57.652;11.968;2022-12-20T06:48:02;61.13;;;16.07;;
11006;SDS011;8186;57.652;11.968;2022-12-20T06:50:29;63.50;;;16.57;;
11006;SDS011;8186;57.652;11.968;2022-12-20T06:52:56;63.20;;;16.37;;
11006;SDS011;8186;57.652;11.968;2022-12-20T06:55:24;57.83;;;15.13;;
11006;SDS011;8186;57.652;11.968;2022-12-20T06:57:51;63.00;;;15.07;;
11006;SDS011;8186;57.652;11.968;2022-12-20T07:00:20;53.20;;;15.07;;
11006;SDS011;8186;57.652;11.968;2022-12-20T07:02:49;59.20;;;17.63;;
11006;SDS011;8186;57.652;11.968;2022-12-20T07:05:16;94.13;;;18.03;;
11006;SDS011;8186;57.652;11.968;2022-12-20T07:07:43;87.70;;;16.90;;
11006;SDS011;8186;57.652;11.968;2022-12-20T07:10:10;72.93;;;18.50;;
11006;SDS011;8186;57.652;11.968;2022-12-20T07:12:38;67.07;;;16.87;;
11006;SDS011;8186;57.652;11.968;2022-12-20T07:15:05;59.57;;;16.83;;
11006;SDS011;8186;57.652;11.968;2022-12-20T07:17:33;68.43;;;17.27;;
11006;SDS011;8186;57.652;11.968;2022-12-20T07:20:02;64.70;;;17.97;;
11006;SDS011;8186;57.652;11.968;2022-12-20T07:22:31;64.17;;;18.03;;
11006;SDS011;8186;57.652;11.968;2022-12-20T07:24:59;78.77;;;17.97;;
11006;SDS011;8186;57.652;11.968;2022-12-20T07:27:26;63.93;;;18.93;;
11006;SDS011;8186;57.652;11.968;2022-12-20T07:29:53;71.87;;;18.27;;
11006;SDS011;8186;57.652;11.968;2022-12-20T07:32:20;46.73;;;18.80;;
11006;SDS011;8186;57.652;11.968;2022-12-20T07:34:48;59.93;;;18.57;;
11006;SDS011;8186;57.652;11.968;2022-12-20T07:37:16;53.67;;;17.90;;
11006;SDS011;8186;57.652;11.968;2022-12-20T07:39:44;55.43;;;17.73;;
11006;SDS011;8186;57.652;11.968;2022-12-20T07:42:11;57.57;;;18.03;;
11006;SDS011;8186;57.652;11.968;2022-12-20T07:44:38;52.03;;;17.50;;
11006;SDS011;8186;57.652;11.968;2022-12-20T07:47:05;52.57;;;19.03;;
11006;SDS011;8186;57.652;11.968;2022-12-20T07:49:34;47.47;;;17.20;;
11006;SDS011;8186;57.652;11.968;2022-12-20T07:52:01;30.83;;;14.10;;
11006;SDS011;8186;57.652;11.968;2022-12-20T07:54:32;48.53;;;18.30;;
11006;SDS011;8186;57.652;11.968;2022-12-20T07:57:00;45.97;;;16.23;;
11006;SDS011;8186;57.652;11.968;2022-12-20T07:59:30;53.13;;;17.47;;
11006;SDS011;8186;57.652;11.968;2022-12-20T08:02:01;50.47;;;18.37;;
11006;SDS011;8186;57.652;11.968;2022-12-20T08:04:27;50.70;;;16.67;;
11006;SDS011;8186;57.652;11.968;2022-12-20T08:06:55;41.13;;;16.63;;
11006;SDS011;8186;57.652;11.968;2022-12-20T08:09:23;52.07;;;15.47;;
11006;SDS011;8186;57.652;11.968;2022-12-20T08:11:53;45.47;;;15.70;;
11006;SDS011;8186;57.652;11.968;2022-12-20T08:14:20;54.60;;;16.57;;
11006;SDS011;8186;57.652;11.968;2022-12-20T08:16:47;50.53;;;16.37;;
11006;SDS011;8186;57.652;11.968;2022-12-20T08:19:15;58.20;;;16.73;;
11006;SDS011;8186;57.652;11.968;2022-12-20T08:21:42;59.07;;;16.30;;
11006;SDS011;8186;57.652;11.968;2022-12-20T08:24:09;92.93;;;17.40;;
11006;SDS011;8186;57.652;11.968;2022-12-20T08:26:36;64.63;;;16.37;;
11006;SDS011;8186;57.652;11.968;2022-12-20T08:29:05;70.00;;;17.07;;
11006;SDS011;8186;57.652;11.968;2022-12-20T08:31:35;91.27;;;16.40;;
11006;SDS011;8186;57.652;11.968;2022-12-20T08:34:03;70.63;;;15.33;;
11006;SDS011;8186;57.652;11.968;2022-12-20T08:36:30;90.50;;;15.80;;
11006;SDS011;8186;57.652;11.968;2022-12-20T08:38:57;95.47;;;16.63;;
11006;SDS011;8186;57.652;11.968;2022-12-20T08:41:27;54.20;;;13.73;;
11006;SDS011;8186;57.652;11.968;2022-12-20T08:43:54;52.27;;;14.57;;
11006;SDS011;8186;57.652;11.968;2022-12-20T08:46:23;56.83;;;15.43;;
11006;SDS011;8186;57.652;11.968;2022-12-20T08:48:50;65.03;;;15.60;;
11006;SDS011;8186;57.652;11.968;2022-12-20T08:51:18;56.47;;;15.90;;
11006;SDS011;8186;57.652;11.968;2022-12-20T08:53:45;54.10;;;15.80;;
11006;SDS011;8186;57.652;11.968;2022-12-20T08:56:13;45.60;;;16.20;;
11006;SDS011;8186;57.652;11.968;2022-12-20T08:58:41;58.33;;;16.13;;
11006;SDS011;8186;57.652;11.968;2022-12-20T09:01:10;40.53;;;15.73;;
11006;SDS011;8186;57.652;11.968;2022-12-20T09:03:40;55.13;;;16.77;;
11006;SDS011;8186;57.652;11.968;2022-12-20T09:06:08;44.47;;;15.03;;
11006;SDS011;8186;57.652;11.968;2022-12-20T09:08:36;45.03;;;15.37;;
11006;SDS011;8186;57.652;11.968;2022-12-20T09:11:05;41.77;;;15.37;;
11006;SDS011;8186;57.652;11.968;2022-12-20T09:13:36;33.93;;;14.00;;
11006;SDS011;8186;57.652;11.968;2022-12-20T09:16:04;31.40;;;14.10;;
11006;SDS011;8186;57.652;11.968;2022-12-20T09:18:32;28.70;;;13.40;;
11006;SDS011;8186;57.652;11.968;2022-12-20T09:21:01;24.33;;;12.63;;
11006;SDS011;8186;57.652;11.968;2022-12-20T09:23:29;24.50;;;13.10;;
11006;SDS011;8186;57.652;11.968;2022-12-20T09:26:00;26.13;;;12.07;;
11006;SDS011;8186;57.652;11.968;2022-12-20T09:28:28;26.13;;;13.23;;
11006;SDS011;8186;57.652;11.968;2022-12-20T09:30:56;25.63;;;13.20;;
11006;SDS011;8186;57.652;11.968;2022-12-20T09:33:24;28.20;;;15.23;;
11006;SDS011;8186;57.652;11.968;2022-12-20T09:35:51;23.20;;;13.93;;
11006;SDS011;8186;57.652;11.968;2022-12-20T09:38:19;23.83;;;13.13;;
11006;SDS011;8186;57.652;11.968;2022-12-20T09:40:47;18.83;;;12.67;;
11006;SDS011;8186;57.652;11.968;2022-12-20T09:43:16;19.63;;;11.47;;
11006;SDS011;8186;57.652;11.968;2022-12-20T09:45:45;21.17;;;11.20;;
11006;SDS011;8186;57.652;11.968;2022-12-20T09:48:13;18.10;;;11.53;;
11006;SDS011;8186;57.652;11.968;2022-12-20T09:50:44;18.43;;;11.20;;
11006;SDS011;8186;57.652;11.968;2022-12-20T09:53:18;20.33;;;10.93;;
11006;SDS011;8186;57.652;11.968;2022-12-20T09:55:54;14.63;;;9.47;;
11006;SDS011;8186;57.652;11.968;2022-12-20T09:58:27;13.47;;;8.40;;
11006;SDS011;8186;57.652;11.968;2022-12-20T10:01:04;10.00;;;7.67;;
11006;SDS011;8186;57.652;11.968;2022-12-20T10:03:40;11.87;;;8.37;;
11006;SDS011;8186;57.652;11.968;2022-12-20T10:06:07;11.67;;;7.47;;
11006;SDS011;8186;57.652;11.968;2022-12-20T10:08:55;11.50;;;8.50;;
11006;SDS011;8186;57.652;11.968;2022-12-20T10:11:28;12.90;;;8.93;;
11006;SDS011;8186;57.652;11.968;2022-12-20T10:14:05;13.57;;;8.87;;
11006;SDS011;8186;57.652;11.968;2022-12-20T10:16:41;12.37;;;8.07;;
11006;SDS011;8186;57.652;11.968;2022-12-20T10:19:19;8.10;;;5.57;;
11006;SDS011;8186;57.652;11.968;2022-12-20T10:22:00;5.83;;;4.87;;
11006;SDS011;8186;57.652;11.968;2022-12-20T10:24:32;9.57;;;6.50;;
11006;SDS011;8186;57.652;11.968;2022-12-20T10:27:03;6.40;;;5.53;;
11006;SDS011;8186;57.652;11.968;2022-12-20T10:29:36;6.57;;;5.50;;
11006;SDS011;8186;57.652;11.968;2022-12-20T10:32:04;6.10;;;4.30;;
11006;SDS011;8186;57.652;11.968;2022-12-20T10:34:37;6.13;;;3.73;;
11006;SDS011;8186;57.652;11.968;2022-12-20T10:37:11;5.17;;;3.87;;
11006;SDS011;8186;57.652;11.968;2022-12-20T10:39:41;4.00;;;3.50;;
11006;SDS011;8186;57.652;11.968;2022-12-20T10:45:00;2.00;;;1.60;;
11006;SDS011;8186;57.652;11.968;2022-12-20T10:47:30;1.70;;;1.57;;
11006;SDS011;8186;57.652;11.968;2022-12-20T10:50:07;1.63;;;1.30;;
11006;SDS011;8186;57.652;11.968;2022-12-20T10:52:35;1.30;;;1.20;;
11006;SDS011;8186;57.652;11.968;2022-12-20T10:55:05;1.30;;;1.10;;
11006;SDS011;8186;57.652;11.968;2022-12-20T10:57:56;2.47;;;1.23;;
11006;SDS011;8186;57.652;11.968;2022-12-20T11:00:29;1.10;;;1.00;;
11006;SDS011;8186;57.652;11.968;2022-12-20T11:03:04;0.77;;;0.77;;
11006;SDS011;8186;57.652;11.968;2022-12-20T11:05:37;1.17;;;0.90;;
11006;SDS011;8186;57.652;11.968;2022-12-20T11:08:08;2.27;;;1.13;;
11006;SDS011;8186;57.652;11.968;2022-12-20T11:10:41;1.40;;;0.97;;
11006;SDS011;8186;57.652;11.968;2022-12-20T11:13:18;0.70;;;0.70;;
11006;SDS011;8186;57.652;11.968;2022-12-20T11:15:47;1.20;;;0.90;;
11006;SDS011;8186;57.652;11.968;2022-12-20T11:18:16;0.80;;;0.80;;
11006;SDS011;8186;57.652;11.968;2022-12-20T11:20:49;1.10;;;0.90;;
11006;SDS011;8186;57.652;11.968;2022-12-20T11:23:20;0.70;;;0.70;;
11006;SDS011;8186;57.652;11.968;2022-12-20T11:26:07;1.20;;;1.00;;
11006;SDS011;8186;57.652;11.968;2022-12-20T11:28:46;0.80;;;0.73;;
11006;SDS011;8186;57.652;11.968;2022-12-20T11:31:19;1.10;;;1.00;;
11006;SDS011;8186;57.652;11.968;2022-12-20T11:33:59;2.33;;;1.10;;
11006;SDS011;8186;57.652;11.968;2022-12-20T11:36:31;2.40;;;1.07;;
11006;SDS011;8186;57.652;11.968;2022-12-20T11:39:20;1.07;;;0.97;;
11006;SDS011;8186;57.652;11.968;2022-12-20T11:41:57;1.60;;;1.40;;
11006;SDS011;8186;57.652;11.968;2022-12-20T11:44:29;1.70;;;1.60;;
11006;SDS011;8186;57.652;11.968;2022-12-20T11:50:02;2.63;;;2.00;;
11006;SDS011;8186;57.652;11.968;2022-12-20T11:52:34;3.00;;;2.43;;
11006;SDS011;8186;57.652;11.968;2022-12-20T11:55:06;2.33;;;1.93;;
11006;SDS011;8186;57.652;11.968;2022-12-20T11:57:44;2.37;;;2.17;;
11006;SDS011;8186;57.652;11.968;2022-12-20T12:00:14;2.63;;;2.43;;
11006;SDS011;8186;57.652;11.968;2022-12-20T12:02:42;2.90;;;2.57;;
11006;SDS011;8186;57.652;11.968;2022-12-20T12:05:14;2.90;;;2.60;;
11006;SDS011;8186;57.652;11.968;2022-12-20T12:07:44;3.77;;;3.23;;
11006;SDS011;8186;57.652;11.968;2022-12-20T12:10:16;3.40;;;3.10;;
11006;SDS011;8186;57.652;11.968;2022-12-20T12:12:49;4.10;;;3.13;;
11006;SDS011;8186;57.652;11.968;2022-12-20T12:15:20;3.30;;;2.93;;
11006;SDS011;8186;57.652;11.968;2022-12-20T12:17:52;3.50;;;2.90;;
11006;SDS011;8186;57.652;11.968;2022-12-20T12:20:23;3.07;;;2.77;;
11006;SDS011;8186;57.652;11.968;2022-12-20T12:22:53;3.40;;;3.10;;
11006;SDS011;8186;57.652;11.968;2022-12-20T12:25:23;3.07;;;2.73;;
11006;SDS011;8186;57.652;11.968;2022-12-20T12:27:52;3.03;;;2.73;;
11006;SDS011;8186;57.652;11.968;2022-12-20T12:30:18;2.87;;;2.57;;
11006;SDS011;8186;57.652;11.968;2022-12-20T12:32:46;3.20;;;2.87;;
11006;SDS011;8186;57.652;11.968;2022-12-20T12:35:22;3.57;;;2.73;;
11006;SDS011;8186;57.652;11.968;2022-12-20T12:38:04;3.23;;;2.93;;
11006;SDS011;8186;57.652;11.968;2022-12-20T12:43:59;3.40;;;2.20;;
11006;SDS011;8186;57.652;11.968;2022-12-20T12:46:31;2.43;;;2.23;;
11006;SDS011;8186;57.652;11.968;2022-12-20T12:49:09;2.50;;;2.30;;
11006;SDS011;8186;57.652;11.968;2022-12-20T12:51:39;2.47;;;2.27;;
11006;SDS011;8186;57.652;11.968;2022-12-20T12:54:14;2.77;;;2.30;;
11006;SDS011;8186;57.652;11.968;2022-12-20T12:56:43;2.40;;;2.20;;
11006;SDS011;8186;57.652;11.968;2022-12-20T13:02:32;2.37;;;2.03;;
11006;SDS011;8186;57.652;11.968;2022-12-20T13:05:28;2.43;;;2.23;;
11006;SDS011;8186;57.652;11.968;2022-12-20T13:08:00;3.13;;;2.30;;
11006;SDS011;8186;57.652;11.968;2022-12-20T13:13:24;2.17;;;1.60;;
11006;SDS011;8186;57.652;11.968;2022-12-20T13:15:51;2.00;;;1.77;;
11006;SDS011;8186;57.652;11.968;2022-12-20T13:18:33;1.77;;;1.67;;
11006;SDS011;8186;57.652;11.968;2022-12-20T13:27:21;2.13;;;1.93;;
11006;SDS011;8186;57.652;11.968;2022-12-20T13:35:56;3.87;;;2.50;;
11006;SDS011;8186;57.652;11.968;2022-12-20T13:38:36;3.83;;;2.97;;
11006;SDS011;8186;57.652;11.968;2022-12-20T13:41:20;3.23;;;2.93;;
11006;SDS011;8186;57.652;11.968;2022-12-20T13:43:52;3.50;;;2.67;;
11006;SDS011;8186;57.652;11.968;2022-12-20T13:46:20;3.27;;;2.97;;
11006;SDS011;8186;57.652;11.968;2022-12-20T13:48:49;3.90;;;3.50;;
11006;SDS011;8186;57.652;11.968;2022-12-20T13:51:19;5.07;;;3.30;;
11006;SDS011;8186;57.652;11.968;2022-12-20T13:53:50;2.97;;;2.77;;
11006;SDS011;8186;57.652;11.968;2022-12-20T13:56:31;4.10;;;3.33;;
11006;SDS011;8186;57.652;11.968;2022-12-20T13:59:02;4.30;;;3.90;;
11006;SDS011;8186;57.652;11.968;2022-12-20T14:01:31;5.67;;;4.10;;
11006;SDS011;8186;57.652;11.968;2022-12-20T14:04:01;6.33;;;5.07;;
11006;SDS011;8186;57.652;11.968;2022-12-20T14:06:32;5.30;;;4.80;;
11006;SDS011;8186;57.652;11.968;2022-12-20T14:08:59;4.57;;;4.17;;
11006;SDS011;8186;57.652;11.968;2022-12-20T14:11:27;4.00;;;3.60;;
11006;SDS011;8186;57.652;11.968;2022-12-20T14:13:54;3.60;;;3.30;;
11006;SDS011;8186;57.652;11.968;2022-12-20T14:16:23;6.50;;;5.00;;
11006;SDS011;8186;57.652;11.968;2022-12-20T14:18:59;5.17;;;4.67;;
11006;SDS011;8186;57.652;11.968;2022-12-20T14:21:26;6.90;;;5.57;;
11006;SDS011;8186;57.652;11.968;2022-12-20T14:23:55;5.07;;;4.57;;
11006;SDS011;8186;57.652;11.968;2022-12-20T14:26:24;7.83;;;7.03;;
11006;SDS011;8186;57.652;11.968;2022-12-20T14:28:53;8.23;;;6.87;;
11006;SDS011;8186;57.652;11.968;2022-12-20T14:31:24;10.77;;;7.67;;
11006;SDS011;8186;57.652;11.968;2022-12-20T14:33:59;8.30;;;6.43;;
11006;SDS011;8186;57.652;11.968;2022-12-20T14:36:28;10.30;;;8.60;;
11006;SDS011;8186;57.652;11.968;2022-12-20T14:38:57;7.33;;;5.97;;
11006;SDS011;8186;57.652;11.968;2022-12-20T14:41:34;9.50;;;6.40;;
11006;SDS011;8186;57.652;11.968;2022-12-20T14:44:03;7.70;;;6.00;;
11006;SDS011;8186;57.652;11.968;2022-12-20T14:46:39;7.57;;;6.30;;
11006;SDS011;8186;57.652;11.968;2022-12-20T14:49:17;6.57;;;5.87;;
11006;SDS011;8186;57.652;11.968;2022-12-20T14:51:47;7.53;;;6.30;;
11006;SDS011;8186;57.652;11.968;2022-12-20T14:54:17;8.17;;;7.27;;
11006;SDS011;8186;57.652;11.968;2022-12-20T14:56:45;7.13;;;6.33;;
11006;SDS011;8186;57.652;11.968;2022-12-20T14:59:13;7.73;;;5.93;;
11006;SDS011;8186;57.652;11.968;2022-12-20T15:01:41;7.17;;;6.20;;
11006;SDS011;8186;57.652;11.968;2022-12-20T15:04:24;8.77;;;6.60;;
11006;SDS011;8186;57.652;11.968;2022-12-20T15:06:56;7.57;;;6.70;;
11006;SDS011;8186;57.652;11.968;2022-12-20T15:09:25;8.50;;;7.50;;
11006;SDS011;8186;57.652;11.968;2022-12-20T15:11:52;9.17;;;8.23;;
11006;SDS011;8186;57.652;11.968;2022-12-20T15:14:29;12.97;;;7.73;;
11006;SDS011;8186;57.652;11.968;2022-12-20T15:16:59;7.20;;;6.43;;
11006;SDS011;8186;57.652;11.968;2022-12-20T15:19:26;9.40;;;7.57;;
11006;SDS011;8186;57.652;11.968;2022-12-20T15:21:55;10.37;;;8.10;;